createdAt,value
2022-12-25T00:01:39.168Z,8.15
2022-12-25T00:04:05.712Z,10.50
2022-12-25T00:06:32.130Z,9.37
2022-12-25T00:08:58.552Z,9.60
2022-12-25T00:11:25.037Z,10.07
2022-12-25T00:13:51.515Z,9.80
2022-12-25T00:16:21.451Z,9.57
2022-12-25T00:18:48.543Z,9.50
2022-12-25T00:21:15.457Z,10.20
2022-12-25T00:23:42.078Z,8.93
2022-12-25T00:26:12.849Z,8.43
2022-12-25T00:28:39.561Z,8.38
2022-12-25T00:31:12.364Z,9.02
2022-12-25T00:33:40.274Z,8.52
2022-12-25T00:36:07.961Z,8.63
2022-12-25T00:38:36.075Z,8.38
2022-12-25T00:41:11.960Z,10.10
2022-12-25T00:43:38.821Z,9.82
2022-12-25T00:46:06.830Z,10.65
2022-12-25T00:48:34.762Z,9.70
2022-12-25T00:51:05.212Z,8.43
2022-12-25T00:53:32.173Z,9.32
2022-12-25T00:56:01.273Z,10.07
2022-12-25T00:58:30.541Z,10.45
2022-12-25T01:00:57.112Z,10.85
2022-12-25T01:03:24.165Z,9.93
2022-12-25T01:05:59.358Z,9.30
2022-12-25T01:08:29.103Z,10.93
2022-12-25T01:11:02.714Z,11.38
2022-12-25T01:13:30.225Z,10.18
2022-12-25T01:18:24.922Z,9.55
2022-12-25T01:20:51.909Z,11.55
2022-12-25T01:23:18.600Z,11.23
2022-12-25T01:25:45.108Z,10.45
2022-12-25T01:28:11.633Z,10.98
2022-12-25T01:30:38.051Z,10.68
2022-12-25T01:33:04.832Z,10.07
2022-12-25T01:35:31.298Z,10.77
2022-12-25T01:37:57.753Z,10.18
2022-12-25T01:40:24.237Z,12.18
2022-12-25T01:42:50.631Z,10.48
2022-12-25T01:45:33.621Z,9.85
2022-12-25T01:48:03.580Z,9.82
2022-12-25T01:50:30.196Z,10.68
2022-12-25T01:52:58.010Z,9.20
2022-12-25T01:55:25.071Z,9.73
2022-12-25T01:57:51.834Z,8.77
2022-12-25T02:00:18.386Z,8.55
2022-12-25T02:02:45.554Z,9.03
2022-12-25T02:05:17.918Z,8.75
2022-12-25T02:07:46.956Z,9.60
2022-12-25T02:10:14.011Z,9.10
2022-12-25T02:12:41.749Z,8.27
2022-12-25T02:15:12.683Z,8.35
2022-12-25T02:18:04.890Z,7.57
2022-12-25T02:20:35.040Z,7.72
2022-12-25T02:23:26.296Z,8.00
2022-12-25T02:26:17.252Z,8.88
2022-12-25T02:29:05.203Z,7.95
2022-12-25T02:31:59.800Z,7.03
2022-12-25T02:34:34.223Z,7.25
2022-12-25T02:37:14.214Z,7.60
2022-12-25T02:40:21.830Z,8.48
2022-12-25T02:43:34.902Z,7.88
2022-12-25T02:46:25.566Z,8.55
2022-12-25T02:49:17.774Z,7.32
2022-12-25T02:52:12.207Z,7.20
2022-12-25T02:55:02.149Z,8.13
2022-12-25T02:57:54.082Z,6.40
2022-12-25T03:00:39.427Z,7.35
2022-12-25T03:03:28.293Z,7.32
2022-12-25T03:06:17.692Z,7.70
2022-12-25T03:08:48.032Z,6.68
2022-12-25T03:11:32.445Z,7.68
2022-12-25T03:14:21.464Z,7.55
2022-12-25T03:16:50.850Z,7.72
2022-12-25T03:19:37.602Z,8.48
2022-12-25T03:22:25.542Z,7.82
2022-12-25T03:25:10.250Z,8.30
2022-12-25T03:27:39.359Z,8.52
2022-12-25T03:30:38.064Z,8.13
2022-12-25T03:33:43.892Z,7.18
2022-12-25T03:36:18.793Z,7.85
2022-12-25T03:39:37.406Z,8.13
2022-12-25T03:42:24.813Z,8.43
2022-12-25T03:45:25.497Z,7.85
2022-12-25T03:48:13.506Z,8.10
2022-12-25T03:51:30.371Z,7.65
2022-12-25T03:54:21.127Z,8.40
2022-12-25T03:57:06.412Z,6.93
2022-12-25T03:59:51.182Z,7.38
2022-12-25T04:02:36.074Z,7.57
2022-12-25T04:05:21.523Z,7.65
2022-12-25T04:08:06.387Z,8.77
2022-12-25T04:10:51.264Z,7.35
2022-12-25T04:13:36.149Z,7.85
2022-12-25T04:16:21.599Z,7.93
2022-12-25T04:19:06.283Z,7.90
2022-12-25T04:21:52.415Z,9.75
2022-12-25T04:24:37.355Z,8.38
2022-12-25T04:27:22.717Z,8.05
2022-12-25T04:30:07.787Z,7.53
2022-12-25T04:32:52.610Z,7.57
2022-12-25T04:35:37.442Z,8.15
2022-12-25T04:38:03.925Z,7.38
2022-12-25T04:40:30.401Z,8.35
2022-12-25T04:42:56.774Z,8.88
2022-12-25T04:45:23.260Z,8.10
2022-12-25T04:47:49.753Z,7.97
2022-12-25T04:50:16.281Z,7.47
2022-12-25T04:52:43.155Z,7.40
2022-12-25T04:55:11.542Z,8.00
2022-12-25T04:57:38.250Z,7.72
2022-12-25T05:00:06.021Z,8.30
2022-12-25T05:02:32.729Z,7.88
2022-12-25T05:04:59.327Z,7.93
2022-12-25T05:07:25.768Z,6.82
2022-12-25T05:09:52.212Z,7.45
2022-12-25T05:12:18.673Z,7.55
2022-12-25T05:14:45.154Z,7.53
2022-12-25T05:17:11.683Z,6.65
2022-12-25T05:19:38.233Z,7.57
2022-12-25T05:22:04.599Z,7.37
2022-12-25T05:24:31.131Z,6.70
2022-12-25T05:26:57.641Z,6.90
2022-12-25T05:29:24.080Z,6.82
2022-12-25T05:31:50.657Z,7.60
2022-12-25T05:34:17.103Z,7.73
2022-12-25T05:36:43.539Z,7.85
2022-12-25T05:39:09.953Z,7.05
2022-12-25T05:41:36.458Z,7.10
2022-12-25T05:44:03.030Z,6.95
2022-12-25T05:46:29.703Z,7.50
2022-12-25T05:48:56.319Z,7.07
2022-12-25T05:51:22.783Z,7.10
2022-12-25T05:53:49.176Z,6.70
2022-12-25T05:56:15.564Z,7.63
2022-12-25T05:58:42.024Z,7.53
2022-12-25T06:01:21.094Z,7.22
2022-12-25T06:03:47.789Z,7.05
2022-12-25T06:06:14.832Z,7.13
2022-12-25T06:08:41.515Z,7.78
2022-12-25T06:11:09.113Z,7.30
2022-12-25T06:13:36.418Z,8.13
2022-12-25T06:16:07.884Z,7.90
2022-12-25T06:18:39.658Z,6.90
2022-12-25T06:21:10.689Z,7.50
2022-12-25T06:23:38.409Z,7.38
2022-12-25T06:26:10.971Z,7.07
2022-12-25T06:28:38.011Z,8.35
2022-12-25T06:31:13.094Z,8.02
2022-12-25T06:33:39.934Z,8.18
2022-12-25T06:36:27.405Z,8.05
2022-12-25T06:38:54.440Z,7.45
2022-12-25T06:41:23.287Z,7.40
2022-12-25T06:43:54.437Z,7.80
2022-12-25T06:46:22.897Z,7.70
2022-12-25T06:48:49.832Z,6.82
2022-12-25T06:51:18.122Z,7.90
2022-12-25T06:53:44.602Z,8.07
2022-12-25T06:56:16.596Z,8.55
2022-12-25T06:58:48.076Z,7.32
2022-12-25T07:01:21.592Z,7.47
2022-12-25T07:03:51.438Z,7.03
2022-12-25T07:06:17.999Z,7.53
2022-12-25T07:08:44.503Z,7.07
2022-12-25T07:11:11.161Z,7.53
2022-12-25T07:13:37.623Z,7.50
2022-12-25T07:16:05.299Z,7.07
2022-12-25T07:18:32.442Z,7.38
2022-12-25T07:21:00.275Z,6.97
2022-12-25T07:23:26.860Z,7.53
2022-12-25T07:25:58.440Z,9.13
2022-12-25T07:28:25.556Z,7.82
2022-12-25T07:30:52.059Z,7.95
2022-12-25T07:33:18.767Z,7.70
2022-12-25T07:35:45.422Z,9.52
2022-12-25T07:38:11.926Z,8.82
2022-12-25T07:40:38.635Z,8.90
2022-12-25T07:43:05.081Z,7.90
2022-12-25T07:45:31.567Z,8.45
2022-12-25T07:48:04.476Z,8.57
2022-12-25T07:50:31.845Z,7.55
2022-12-25T07:52:58.435Z,8.50
2022-12-25T07:55:24.970Z,7.87
2022-12-25T07:57:52.263Z,7.73
2022-12-25T08:00:19.211Z,7.57
2022-12-25T08:02:45.777Z,7.82
2022-12-25T08:05:12.395Z,7.82
2022-12-25T08:07:38.871Z,6.80
2022-12-25T08:10:05.920Z,7.33
2022-12-25T08:12:32.306Z,7.15
2022-12-25T08:14:58.755Z,7.63
2022-12-25T08:17:25.171Z,8.70
2022-12-25T08:19:51.628Z,8.68
2022-12-25T08:22:18.094Z,7.82
2022-12-25T08:24:44.525Z,8.38
2022-12-25T08:27:13.943Z,8.07
2022-12-25T08:29:40.396Z,7.65
2022-12-25T08:32:06.830Z,7.50
2022-12-25T08:34:33.251Z,8.10
2022-12-25T08:36:59.733Z,7.83
2022-12-25T08:39:26.348Z,6.93
2022-12-25T08:41:52.804Z,6.87
2022-12-25T08:44:19.209Z,6.90
2022-12-25T08:46:45.731Z,7.18
2022-12-25T08:49:12.230Z,6.40
2022-12-25T08:51:39.145Z,6.82
2022-12-25T08:54:05.593Z,6.53
2022-12-25T08:56:32.542Z,7.13
2022-12-25T08:58:59.026Z,6.45
2022-12-25T09:01:25.531Z,6.63
2022-12-25T09:03:52.282Z,6.57
2022-12-25T09:06:18.871Z,5.93
2022-12-25T09:08:49.031Z,6.47
2022-12-25T09:11:20.783Z,6.20
2022-12-25T09:13:48.705Z,5.88
2022-12-25T09:16:20.027Z,6.38
2022-12-25T09:18:46.582Z,7.07
2022-12-25T09:21:15.330Z,7.85
2022-12-25T09:23:42.470Z,6.93
2022-12-25T09:26:12.227Z,5.90
2022-12-25T09:28:38.814Z,5.00
2022-12-25T09:31:06.013Z,4.97
2022-12-25T09:33:32.509Z,5.68
2022-12-25T09:36:01.738Z,4.82
2022-12-25T09:38:28.991Z,4.65
2022-12-25T09:41:07.561Z,4.57
2022-12-25T09:43:40.496Z,5.32
2022-12-25T09:46:13.942Z,4.85
2022-12-25T09:48:46.496Z,4.80
2022-12-25T09:51:17.161Z,5.00
2022-12-25T09:53:50.430Z,4.53
2022-12-25T09:56:25.473Z,4.45
2022-12-25T09:58:53.211Z,5.15
2022-12-25T10:01:19.745Z,4.13
2022-12-25T10:04:05.065Z,5.30
2022-12-25T10:07:11.536Z,3.97
2022-12-25T10:09:53.667Z,4.75
2022-12-25T10:12:49.321Z,4.63
2022-12-25T10:15:32.328Z,4.35
2022-12-25T10:18:23.631Z,3.95
2022-12-25T10:20:52.978Z,4.00
2022-12-25T10:23:25.546Z,4.35
2022-12-25T10:25:53.668Z,4.32
2022-12-25T10:28:29.867Z,4.15
2022-12-25T10:31:01.580Z,4.07
2022-12-25T10:33:28.471Z,3.80
2022-12-25T10:35:54.942Z,4.78
2022-12-25T10:38:21.437Z,4.32
2022-12-25T10:41:06.043Z,4.10
2022-12-25T10:43:58.589Z,4.20
2022-12-25T10:46:28.459Z,4.22
2022-12-25T10:49:02.098Z,3.45
2022-12-25T10:51:33.381Z,4.25
2022-12-25T10:54:02.627Z,3.90
2022-12-25T10:56:29.619Z,4.18
2022-12-25T10:59:07.091Z,4.50
2022-12-25T11:01:33.972Z,4.43
2022-12-25T11:04:00.693Z,4.20
2022-12-25T11:06:30.720Z,4.45
2022-12-25T11:09:00.130Z,4.32
2022-12-25T11:11:28.628Z,4.88
2022-12-25T11:13:58.751Z,5.45
2022-12-25T11:16:31.345Z,4.70
2022-12-25T11:18:58.909Z,5.65
2022-12-25T11:24:02.448Z,5.40
2022-12-25T11:26:46.916Z,5.65
2022-12-25T11:29:37.162Z,5.65
2022-12-25T11:32:06.347Z,5.15
2022-12-25T11:34:40.338Z,5.40
2022-12-25T11:37:14.527Z,5.45
2022-12-25T11:39:41.859Z,5.70
2022-12-25T11:42:39.976Z,6.10
2022-12-25T11:45:12.325Z,5.45
2022-12-25T11:47:59.837Z,5.32
2022-12-25T11:50:35.665Z,5.20
2022-12-25T11:53:05.872Z,6.00
2022-12-25T11:55:42.475Z,5.72
2022-12-25T11:58:21.167Z,5.85
2022-12-25T12:00:51.672Z,6.35
2022-12-25T12:03:24.961Z,6.30
2022-12-25T12:05:55.325Z,5.95
2022-12-25T12:08:21.771Z,6.43
2022-12-25T12:11:18.253Z,6.47
2022-12-25T12:14:15.599Z,6.15
2022-12-25T12:16:42.257Z,6.20
2022-12-25T12:19:30.509Z,6.57
2022-12-25T12:21:59.858Z,7.15
2022-12-25T12:24:40.129Z,6.35
2022-12-25T12:27:37.199Z,7.03
2022-12-25T12:30:06.081Z,6.15
2022-12-25T12:32:44.609Z,6.03
2022-12-25T12:35:21.019Z,5.68
2022-12-25T12:37:53.507Z,5.68
2022-12-25T12:40:33.952Z,6.15
2022-12-25T12:43:01.468Z,5.85
2022-12-25T12:45:35.932Z,5.78
2022-12-25T12:48:13.926Z,5.68
2022-12-25T12:50:41.908Z,7.47
2022-12-25T12:53:23.663Z,6.75
2022-12-25T12:55:51.569Z,6.78
2022-12-25T12:58:30.853Z,6.72
2022-12-25T13:01:35.363Z,7.03
2022-12-25T13:04:30.934Z,7.40
2022-12-25T13:07:17.696Z,6.38
2022-12-25T13:10:32.288Z,6.28
2022-12-25T13:13:02.872Z,6.45
2022-12-25T13:15:33.848Z,6.97
2022-12-25T13:18:04.589Z,7.50
2022-12-25T13:20:39.754Z,6.90
2022-12-25T13:23:24.573Z,7.45
2022-12-25T13:25:56.224Z,7.63
2022-12-25T13:28:31.182Z,7.63
2022-12-25T13:31:12.681Z,8.23
2022-12-25T13:33:40.327Z,7.43
2022-12-25T13:36:12.518Z,7.32
2022-12-25T13:38:45.272Z,8.10
2022-12-25T13:41:34.775Z,7.93
2022-12-25T13:44:02.251Z,8.48
2022-12-25T13:49:01.288Z,8.02
2022-12-25T13:51:28.374Z,8.38
2022-12-25T13:54:05.849Z,8.63
2022-12-25T13:56:34.313Z,8.45
2022-12-25T13:59:00.774Z,8.05
2022-12-25T14:01:28.454Z,8.07
2022-12-25T14:03:55.364Z,8.45
2022-12-25T14:06:27.286Z,8.68
2022-12-25T14:08:56.220Z,8.82
2022-12-25T14:11:25.185Z,8.57
2022-12-25T14:13:57.763Z,7.32
2022-12-25T14:16:25.687Z,8.15
2022-12-25T14:18:57.362Z,8.27
2022-12-25T14:21:38.582Z,8.43
2022-12-25T14:24:13.470Z,8.73
2022-12-25T14:26:40.185Z,8.27
2022-12-25T14:29:16.551Z,8.60
2022-12-25T14:31:45.186Z,9.10
2022-12-25T14:34:18.519Z,9.00
2022-12-25T14:36:45.531Z,9.73
2022-12-25T14:39:37.518Z,10.75
2022-12-25T14:42:20.345Z,11.00
2022-12-25T14:44:59.391Z,11.50
2022-12-25T14:47:26.453Z,10.43
2022-12-25T14:49:54.554Z,11.40
2022-12-25T14:52:27.211Z,11.13
2022-12-25T14:55:02.724Z,11.48
2022-12-25T14:57:40.374Z,12.07
2022-12-25T15:00:08.915Z,13.68
2022-12-25T15:02:42.878Z,13.50
2022-12-25T15:05:29.780Z,13.35
2022-12-25T15:08:01.610Z,12.85
2022-12-25T15:10:59.114Z,12.68
2022-12-25T15:13:17.811Z,12.02
2022-12-25T15:15:51.564Z,12.02
2022-12-25T15:18:20.199Z,12.20
2022-12-25T15:20:46.678Z,11.65
2022-12-25T15:23:19.955Z,11.90
2022-12-25T15:25:47.599Z,12.30
2022-12-25T15:28:14.289Z,11.70
2022-12-25T15:30:40.960Z,12.07
2022-12-25T15:33:13.177Z,11.70
2022-12-25T15:35:39.721Z,11.80
2022-12-25T15:38:06.289Z,12.07
2022-12-25T15:40:32.833Z,13.40
2022-12-25T15:42:59.854Z,14.10
2022-12-25T15:45:30.273Z,17.40
2022-12-25T15:47:57.450Z,15.70
2022-12-25T15:50:24.478Z,14.20
2022-12-25T15:52:51.015Z,13.45
2022-12-25T15:55:17.582Z,12.83
2022-12-25T15:57:47.485Z,15.32
2022-12-25T16:00:22.469Z,21.13
2022-12-25T16:02:50.314Z,20.23
2022-12-25T16:05:17.091Z,20.20
2022-12-25T16:07:43.485Z,18.37
2022-12-25T16:10:19.404Z,19.17
2022-12-25T16:12:46.624Z,17.98
2022-12-25T16:15:14.855Z,16.90
2022-12-25T16:17:42.195Z,18.38
2022-12-25T16:20:09.091Z,17.58
2022-12-25T16:22:39.742Z,16.20
2022-12-25T16:25:13.299Z,18.83
2022-12-25T16:27:39.704Z,18.13
2022-12-25T16:30:06.854Z,17.60
2022-12-25T16:32:33.378Z,17.58
2022-12-25T16:34:59.805Z,18.17
2022-12-25T16:37:27.573Z,21.25
2022-12-25T16:39:53.999Z,25.63
2022-12-25T16:42:20.601Z,26.50
2022-12-25T16:44:47.030Z,27.95
2022-12-25T16:47:13.443Z,30.67
2022-12-25T16:49:39.915Z,29.00
2022-12-25T16:52:06.363Z,28.75
2022-12-25T16:54:32.897Z,28.98
2022-12-25T16:56:59.466Z,30.70
2022-12-25T16:59:28.450Z,33.40
2022-12-25T17:01:54.975Z,34.08
2022-12-25T17:04:22.101Z,30.05
2022-12-25T17:06:48.774Z,27.63
2022-12-25T17:09:15.183Z,29.35
2022-12-25T17:11:41.645Z,27.80
2022-12-25T17:14:08.202Z,27.80
2022-12-25T17:16:36.329Z,24.93
2022-12-25T17:19:07.909Z,23.30
2022-12-25T17:21:34.914Z,21.13
2022-12-25T17:24:04.013Z,19.52
2022-12-25T17:26:32.399Z,19.15
2022-12-25T17:28:58.900Z,18.58
2022-12-25T17:31:25.674Z,20.17
2022-12-25T17:33:52.216Z,20.45
2022-12-25T17:36:20.411Z,19.87
2022-12-25T17:38:47.672Z,19.55
2022-12-25T17:41:15.990Z,19.25
2022-12-25T17:43:44.237Z,19.65
2022-12-25T17:46:25.304Z,19.63
2022-12-25T17:48:52.719Z,22.20
2022-12-25T17:53:50.980Z,20.67
2022-12-25T17:56:19.181Z,18.63
2022-12-25T17:58:51.591Z,19.65
2022-12-25T18:01:19.065Z,18.85
2022-12-25T18:03:46.561Z,19.38
2022-12-25T18:11:11.747Z,20.42
2022-12-25T18:13:38.311Z,21.05
2022-12-25T18:16:07.065Z,21.77
2022-12-25T18:18:34.702Z,20.88
2022-12-25T18:21:02.205Z,21.05
2022-12-25T18:23:28.948Z,22.13
2022-12-25T18:25:55.497Z,21.17
2022-12-25T18:28:22.005Z,21.13
2022-12-25T18:30:48.569Z,22.03
2022-12-25T18:33:15.036Z,21.50
2022-12-25T18:35:43.193Z,24.30
2022-12-25T18:38:13.328Z,22.98
2022-12-25T18:40:44.934Z,23.63
2022-12-25T18:43:12.031Z,22.80
2022-12-25T18:45:38.728Z,23.02
2022-12-25T18:48:06.425Z,23.88
2022-12-25T18:50:34.705Z,21.95
2022-12-25T18:53:01.736Z,22.60
2022-12-25T18:55:28.556Z,23.27
2022-12-25T18:57:55.526Z,23.63
2022-12-25T19:00:22.692Z,23.10
2022-12-25T19:02:49.753Z,27.40
2022-12-25T19:05:16.997Z,24.88
2022-12-25T19:07:43.783Z,25.48
2022-12-25T19:10:10.434Z,26.13
2022-12-25T19:12:37.126Z,25.52
2022-12-25T19:15:03.968Z,28.55
2022-12-25T19:17:32.082Z,27.20
2022-12-25T19:19:58.957Z,26.85
2022-12-25T19:22:26.539Z,26.53
2022-12-25T19:24:52.973Z,27.40
2022-12-25T19:27:19.473Z,27.73
2022-12-25T19:29:45.938Z,27.83
2022-12-25T19:32:12.493Z,33.33
2022-12-25T19:34:38.992Z,27.73
2022-12-25T19:37:05.863Z,25.80
2022-12-25T19:39:32.300Z,26.75
2022-12-25T19:41:58.773Z,25.67
2022-12-25T19:44:25.246Z,25.15
2022-12-25T19:46:51.666Z,26.27
2022-12-25T19:49:18.064Z,26.45
2022-12-25T19:51:46.197Z,25.42
2022-12-25T19:54:14.852Z,24.90
2022-12-25T19:56:42.182Z,25.38
2022-12-25T19:59:09.137Z,28.77
2022-12-25T20:01:35.726Z,32.67
2022-12-25T20:04:02.426Z,38.17
2022-12-25T20:06:31.445Z,35.13
2022-12-25T20:09:01.729Z,30.10
2022-12-25T20:11:30.344Z,29.75
2022-12-25T20:13:57.169Z,30.58
2022-12-25T20:16:24.756Z,27.90
2022-12-25T20:18:51.747Z,27.35
2022-12-25T20:21:20.905Z,26.60
2022-12-25T20:23:49.960Z,25.85
2022-12-25T20:26:18.617Z,24.02
2022-12-25T20:28:45.356Z,22.13
2022-12-25T20:31:16.687Z,21.40
2022-12-25T20:33:43.710Z,21.58
2022-12-25T20:36:10.729Z,22.58
2022-12-25T20:38:37.437Z,21.23
2022-12-25T20:43:53.453Z,27.02
2022-12-25T20:46:20.034Z,22.80
2022-12-25T20:48:46.946Z,27.13
2022-12-25T20:51:16.702Z,23.13
2022-12-25T20:53:43.904Z,20.63
2022-12-25T20:56:15.256Z,20.25
2022-12-25T20:58:41.950Z,21.00
2022-12-25T21:01:12.114Z,19.33
2022-12-25T21:03:39.083Z,18.25
2022-12-25T21:06:06.304Z,18.52
2022-12-25T21:08:32.972Z,19.65
2022-12-25T21:11:00.938Z,19.30
2022-12-25T21:13:36.502Z,18.35
2022-12-25T21:16:09.323Z,19.65
2022-12-25T21:18:35.853Z,17.77
2022-12-25T21:21:05.675Z,17.63
2022-12-25T21:23:36.702Z,18.60
2022-12-25T21:26:19.080Z,16.73
2022-12-25T21:28:50.572Z,17.20
2022-12-25T21:31:17.747Z,16.15
2022-12-25T21:33:53.620Z,20.02
2022-12-25T21:36:22.281Z,16.50
2022-12-25T21:38:53.332Z,23.73
2022-12-25T21:41:20.114Z,16.67
2022-12-25T21:43:46.668Z,18.30
2022-12-25T21:46:14.738Z,17.50
2022-12-25T21:48:42.099Z,15.50
2022-12-25T21:51:37.375Z,16.10
2022-12-25T21:54:04.461Z,16.33
2022-12-25T21:56:34.380Z,17.52
2022-12-25T21:59:04.311Z,17.55
2022-12-25T22:01:31.534Z,16.92
2022-12-25T22:04:06.912Z,16.55
2022-12-25T22:06:52.673Z,17.88
2022-12-25T22:09:19.958Z,17.65
2022-12-25T22:12:05.001Z,19.35
2022-12-25T22:14:54.168Z,18.33
2022-12-25T22:17:42.858Z,19.75
2022-12-25T22:20:12.858Z,19.25
2022-12-25T22:22:39.288Z,18.00
2022-12-25T22:25:06.901Z,16.30
2022-12-25T22:27:35.868Z,18.50
2022-12-25T22:30:02.463Z,17.67
2022-12-25T22:32:28.943Z,18.07
2022-12-25T22:34:55.394Z,16.27
2022-12-25T22:37:22.200Z,17.10
2022-12-25T22:39:48.647Z,17.38
2022-12-25T22:42:15.831Z,17.50
2022-12-25T22:44:42.391Z,16.02
2022-12-25T22:47:09.134Z,16.77
2022-12-25T22:49:35.697Z,17.55
2022-12-25T22:52:02.426Z,17.17
2022-12-25T22:54:31.371Z,16.70
2022-12-25T22:56:58.500Z,15.88
2022-12-25T22:59:25.373Z,15.35
2022-12-25T23:01:51.991Z,13.98
2022-12-25T23:04:18.562Z,15.60
2022-12-25T23:06:46.500Z,16.10
2022-12-25T23:09:20.449Z,14.05
2022-12-25T23:11:50.770Z,15.52
2022-12-25T23:14:36.040Z,14.77
2022-12-25T23:17:02.474Z,14.93
2022-12-25T23:19:47.640Z,15.52
2022-12-25T23:22:32.412Z,14.38
2022-12-25T23:25:17.643Z,13.98
2022-12-25T23:27:45.410Z,13.02
2022-12-25T23:30:14.524Z,14.23
2022-12-25T23:32:42.526Z,13.38
2022-12-25T23:35:10.166Z,12.55
2022-12-25T23:37:36.581Z,13.93
2022-12-25T23:40:04.407Z,14.30
2022-12-25T23:42:30.863Z,13.15
2022-12-25T23:44:57.296Z,13.93
2022-12-25T23:47:23.703Z,14.68
2022-12-25T23:49:50.100Z,14.10
2022-12-25T23:52:16.542Z,14.05
2022-12-25T23:54:43.000Z,12.93
2022-12-25T23:57:09.395Z,14.23
2022-12-25T23:59:35.827Z,13.75
